Time;durP1;ratioP1;P1;durP2;ratioP2;P2;SDS_P1;SDS_P2;PMS_P1;PMS_P2;Temp;Humidity;BMP_temperature;BMP_pressure;BME280_temperature;BME280_humidity;BME280_pressure;Samples;Min_cycle;Max_cycle;Signal;HPM_P1;HPM_P2
2021/12/04 00:01:11;;;;;;;34.63;16.95;;;5.30;99.90;;;;;;5005576;28;20050;-82
2021/12/04 00:03:40;;;;;;;37.78;17.45;;;5.40;99.90;;;;;;5007910;28;20468;-80
2021/12/04 00:06:16;;;;;;;38.47;18.20;;;5.30;99.90;;;;;;5003887;28;20128;-77
2021/12/04 00:08:45;;;;;;;33.83;15.18;;;5.30;99.90;;;;;;5001564;28;20077;-76
2021/12/04 00:11:14;;;;;;;36.45;15.80;;;5.30;99.90;;;;;;5022519;28;20080;-77
2021/12/04 00:13:43;;;;;;;35.15;16.15;;;5.40;99.90;;;;;;5004904;28;20049;-80
2021/12/04 00:16:14;;;;;;;;;;;5.30;99.90;;;;;;5005588;28;20108;-82
2021/12/04 00:18:40;;;;;;;43.22;16.35;;;5.20;99.90;;;;;;5005147;28;19967;-79
2021/12/04 00:21:06;;;;;;;;;;;5.30;99.90;;;;;;5024471;28;20033;-81
2021/12/04 00:23:36;;;;;;;39.45;16.63;;;5.20;99.90;;;;;;5004028;28;19932;-82
2021/12/04 00:26:04;;;;;;;39.08;16.75;;;5.20;99.90;;;;;;5003543;28;20045;-79
2021/12/04 00:28:30;;;;;;;37.90;15.48;;;5.20;99.90;;;;;;5003689;28;20585;-78
2021/12/04 00:30:55;;;;;;;;;;;5.20;99.90;;;;;;5008134;28;20145;-78
2021/12/04 00:33:26;;;;;;;38.47;14.30;;;5.20;99.90;;;;;;5003878;28;20400;-79
2021/12/04 00:35:59;;;;;;;39.88;15.52;;;5.10;99.90;;;;;;4998976;28;20038;-79
2021/12/04 00:49:20;;;;;;;34.58;13.65;;;5.20;99.90;;;;;;5003922;28;20041;-79
2021/12/04 00:51:54;;;;;;;48.42;15.07;;;5.20;99.90;;;;;;5001608;28;20034;-79
2021/12/04 00:54:24;;;;;;;43.75;16.25;;;5.20;99.90;;;;;;4999308;28;20050;-79
2021/12/04 00:56:51;;;;;;;45.10;15.32;;;5.20;99.90;;;;;;4995225;28;20037;-79
2021/12/04 00:59:17;;;;;;;41.38;16.02;;;5.20;99.90;;;;;;5005585;28;20429;-79
2021/12/04 01:01:43;;;;;;;;;;;5.10;99.90;;;;;;5020613;28;20045;-79
2021/12/04 01:04:11;;;;;;;33.77;13.93;;;5.10;99.90;;;;;;5005456;28;20384;-79
2021/12/04 01:06:37;;;;;;;41.75;15.85;;;5.10;99.90;;;;;;5003397;28;20072;-79
2021/12/04 01:09:03;;;;;;;;;;;5.10;99.90;;;;;;5004147;28;20092;-79
2021/12/04 01:11:29;;;;;;;43.17;16.10;;;5.10;99.90;;;;;;5004766;28;19925;-80
2021/12/04 01:13:55;;;;;;;;;;;5.10;99.90;;;;;;5003376;28;20064;-79
2021/12/04 01:16:20;;;;;;;34.22;14.45;;;5.10;99.90;;;;;;5005841;28;20023;-79
2021/12/04 01:18:46;;;;;;;;;;;5.10;99.90;;;;;;5004250;28;20080;-79
2021/12/04 01:21:11;;;;;;;37.97;16.85;;;5.10;99.90;;;;;;5019840;28;19952;-80
2021/12/04 01:23:37;;;;;;;;;;;5.00;99.90;;;;;;5005991;28;20045;-79
2021/12/04 01:26:03;;;;;;;39.50;15.00;;;5.10;99.90;;;;;;5003766;28;19964;-79
2021/12/04 01:28:28;;;;;;;;;;;5.10;99.90;;;;;;5003595;28;20050;-79
2021/12/04 01:30:54;;;;;;;37.75;15.18;;;5.10;99.90;;;;;;5006083;28;19921;-79
2021/12/04 01:33:20;;;;;;;;;;;5.00;99.90;;;;;;5005623;28;20041;-79
2021/12/04 01:35:45;;;;;;;45.15;16.85;;;5.00;99.90;;;;;;5002250;28;19971;-79
2021/12/04 01:38:11;;;;;;;;;;;5.00;99.90;;;;;;5006485;28;20037;-79
2021/12/04 01:40:39;;;;;;;40.03;16.05;;;5.00;99.90;;;;;;5003860;28;19922;-79
2021/12/04 01:43:07;;;;;;;43.28;16.55;;;5.00;99.90;;;;;;5004684;28;20127;-79
2021/12/04 01:45:33;;;;;;;34.65;15.63;;;5.10;99.90;;;;;;5020997;28;20062;-78
2021/12/04 01:47:59;;;;;;;;;;;5.10;99.90;;;;;;5004099;28;20049;-79
2021/12/04 01:50:27;;;;;;;39.00;16.70;;;5.10;99.90;;;;;;5005876;28;19923;-79
2021/12/04 01:52:55;;;;;;;45.83;17.20;;;5.00;99.90;;;;;;5004098;28;20061;-78
2021/12/04 01:55:24;;;;;;;45.63;17.45;;;5.00;99.90;;;;;;5005116;28;20045;-79
2021/12/04 01:57:49;;;;;;;47.60;17.63;;;5.00;99.90;;;;;;5002627;28;20034;-79
2021/12/04 02:00:15;;;;;;;;;;;5.10;99.90;;;;;;5006923;28;20088;-79
2021/12/04 02:02:41;;;;;;;44.92;17.42;;;5.20;99.90;;;;;;5001832;28;19918;-79
2021/12/04 02:05:07;;;;;;;;;;;5.20;99.90;;;;;;5006215;28;20056;-79
2021/12/04 02:07:32;;;;;;;44.20;16.48;;;5.10;99.90;;;;;;5002560;28;19925;-79
2021/12/04 02:10:01;;;;;;;;;;;5.10;99.90;;;;;;5004980;28;20393;-78
2021/12/04 02:12:29;;;;;;;48.50;16.02;;;5.10;99.90;;;;;;5003129;28;19925;-79
2021/12/04 02:14:55;;;;;;;;;;;5.10;99.90;;;;;;5003150;28;20057;-78
2021/12/04 02:17:20;;;;;;;46.78;17.77;;;5.10;99.90;;;;;;5003369;28;20042;-78
2021/12/04 02:19:47;;;;;;;;;;;5.10;99.90;;;;;;5003747;28;20060;-78
2021/12/04 02:22:16;;;;;;;46.85;17.40;;;5.10;99.90;;;;;;5005723;28;19921;-78
2021/12/04 02:24:45;;;;;;;49.97;17.80;;;5.10;99.90;;;;;;5004637;28;20045;-77
2021/12/04 02:27:13;;;;;;;48.75;18.92;;;5.10;99.90;;;;;;5002322;28;20046;-78
2021/12/04 02:29:46;;;;;;;43.20;17.42;;;5.00;99.90;;;;;;5005079;28;20093;-78
2021/12/04 02:32:12;;;;;;;48.75;18.00;;;5.10;99.90;;;;;;5004498;28;20041;-78
2021/12/04 02:34:38;;;;;;;;;;;5.10;99.90;;;;;;5002901;28;20057;-78
2021/12/04 02:37:03;;;;;;;47.72;16.75;;;5.10;99.90;;;;;;5007073;28;19928;-77
2021/12/04 02:39:31;;;;;;;;;;;5.20;99.90;;;;;;5005853;28;20049;-78
2021/12/04 02:41:58;;;;;;;42.22;17.77;;;5.10;99.90;;;;;;5008646;28;19921;-78
2021/12/04 02:44:38;;;;;;;47.53;16.67;;;5.00;99.90;;;;;;5004087;28;20071;-78
2021/12/04 02:47:05;;;;;;;49.58;18.55;;;5.10;99.90;;;;;;5001552;28;20397;-78
2021/12/04 02:49:31;;;;;;;45.58;17.70;;;5.10;99.90;;;;;;5008845;28;20122;-78
2021/12/04 02:52:07;;;;;;;;;;;5.10;99.90;;;;;;5008947;28;20037;-78
2021/12/04 02:54:34;;;;;;;44.38;16.63;;;5.10;99.90;;;;;;5001849;28;19926;-78
2021/12/04 02:57:00;;;;;;;40.28;16.50;;;5.20;99.90;;;;;;5009138;28;20055;-78
2021/12/04 02:59:26;;;;;;;43.55;17.27;;;5.10;99.90;;;;;;5002059;28;20115;-78
2021/12/04 03:01:56;;;;;;;;;;;5.00;99.90;;;;;;5008830;28;20513;-77
2021/12/04 03:04:26;;;;;;;40.15;16.00;;;5.00;99.90;;;;;;5023387;28;19965;-77
2021/12/04 03:06:53;;;;;;;35.90;15.50;;;5.00;99.90;;;;;;5025349;28;20132;-78
2021/12/04 03:09:19;;;;;;;41.80;15.55;;;5.00;99.90;;;;;;5006172;28;20107;-78
2021/12/04 03:11:45;;;;;;;;;;;5.00;99.90;;;;;;5007676;28;20044;-78
2021/12/04 03:14:11;;;;;;;34.63;15.18;;;4.90;99.90;;;;;;5007072;28;19916;-78
2021/12/04 03:16:40;;;;;;;;;;;4.90;99.90;;;;;;5009284;28;20128;-78
2021/12/04 03:19:06;;;;;;;37.95;15.02;;;4.90;99.90;;;;;;5007848;28;19967;-78
2021/12/04 03:21:33;;;;;;;;;;;4.90;99.90;;;;;;5005317;28;20041;-78
2021/12/04 03:24:11;;;;;;;34.10;14.27;;;4.90;99.90;;;;;;5008503;28;20015;-78
2021/12/04 03:26:38;;;;;;;41.38;13.90;;;4.80;99.90;;;;;;5006504;28;20478;-78
2021/12/04 03:29:12;;;;;;;34.75;14.50;;;5.80;99.90;;;;;;5023727;28;20037;-78
2021/12/04 03:32:47;;;;;;;41.10;15.27;;;4.90;99.90;;;;;;5007046;28;20049;-77
2021/12/04 03:42:35;;;;;;;38.05;14.38;;;4.90;99.90;;;;;;5025199;28;20061;-78
2021/12/04 03:45:02;;;;;;;44.05;14.77;;;4.90;99.90;;;;;;5030455;28;20045;-78
2021/12/04 03:47:29;;;;;;;34.55;14.70;;;5.00;99.90;;;;;;5026331;28;20056;-78
2021/12/04 03:49:56;;;;;;;44.33;14.95;;;5.00;99.90;;;;;;5026943;28;20112;-78
2021/12/04 03:52:21;;;;;;;41.67;14.55;;;5.00;99.90;;;;;;5024289;28;20052;-78
2021/12/04 03:54:47;;;;;;;;;;;5.00;99.90;;;;;;5028068;28;20045;-78
2021/12/04 03:57:12;;;;;;;42.00;13.82;;;5.10;99.90;;;;;;5026444;28;20304;-78
2021/12/04 03:59:41;;;;;;;36.28;14.18;;;5.10;99.90;;;;;;5024996;28;20134;-78
2021/12/04 04:02:09;;;;;;;38.78;14.07;;;5.10;99.90;;;;;;5028479;28;20037;-78
2021/12/04 04:04:35;;;;;;;51.95;14.73;;;5.00;99.90;;;;;;5025388;28;20040;-78
2021/12/04 04:07:00;;;;;;;;;;;5.00;99.90;;;;;;5025781;28;20083;-78
2021/12/04 04:09:27;;;;;;;45.30;13.43;;;5.00;99.90;;;;;;5024734;28;19935;-78
2021/12/04 04:11:53;;;;;;;43.15;13.60;;;4.90;99.90;;;;;;5027394;28;20400;-78
2021/12/04 04:14:18;;;;;;;;;;;5.10;99.90;;;;;;5024187;28;20042;-78
2021/12/04 04:16:44;;;;;;;37.88;12.15;;;5.00;99.90;;;;;;5026570;28;19925;-78
2021/12/04 04:19:10;;;;;;;;;;;5.00;99.90;;;;;;5027810;28;20142;-78
2021/12/04 04:21:41;;;;;;;57.45;14.45;;;4.90;99.90;;;;;;5025852;28;20301;-78
2021/12/04 04:24:13;;;;;;;45.70;15.38;;;4.90;99.90;;;;;;5023916;28;20080;-78
2021/12/04 04:26:40;;;;;;;42.22;14.80;;;4.90;99.90;;;;;;5027215;28;20083;-78
2021/12/04 04:29:07;;;;;;;42.92;14.07;;;4.90;99.90;;;;;;5024425;28;20629;-78
2021/12/04 04:31:34;;;;;;;42.00;14.00;;;4.90;99.90;;;;;;5024850;28;20488;-78
2021/12/04 04:34:04;;;;;;;42.80;14.75;;;5.00;99.90;;;;;;5026415;28;20037;-78
2021/12/04 05:11:39;;;;;;;52.67;16.30;;;5.10;99.90;;;;;;5003294;28;20053;-77
2021/12/04 05:14:05;;;;;;;42.20;13.18;;;5.10;99.90;;;;;;5004796;28;20033;-77
2021/12/04 05:16:43;;;;;;;68.95;15.95;;;5.10;99.90;;;;;;5002833;28;20187;-77
2021/12/04 05:19:24;;;;;;;53.78;15.85;;;5.10;99.90;;;;;;4999632;28;20042;-78
2021/12/04 05:21:53;;;;;;;50.13;14.32;;;5.00;99.90;;;;;;5004974;28;20054;-77
2021/12/04 05:24:20;;;;;;;72.53;17.38;;;5.00;99.90;;;;;;5004582;28;20470;-77
2021/12/04 05:26:46;;;;;;;48.80;15.55;;;5.00;99.90;;;;;;5002860;28;20103;-77
2021/12/04 05:29:11;;;;;;;;;;;5.00;99.90;;;;;;5003382;28;20037;-77
2021/12/04 05:31:40;;;;;;;54.92;14.57;;;5.00;99.90;;;;;;5024037;28;19925;-77
2021/12/04 05:34:05;;;;;;;58.67;14.88;;;5.10;99.90;;;;;;4996558;28;20073;-77
2021/12/04 05:36:31;;;;;;;;;;;5.20;99.90;;;;;;5002978;28;20508;-78
2021/12/04 05:38:56;;;;;;;51.58;13.45;;;5.10;99.90;;;;;;5021296;28;20019;-78
2021/12/04 05:41:22;;;;;;;;;;;5.30;99.90;;;;;;5019580;28;20437;-77
2021/12/04 05:43:48;;;;;;;42.10;12.02;;;5.30;99.90;;;;;;5020614;28;19974;-77
2021/12/04 05:46:17;;;;;;;46.10;13.52;;;5.30;99.90;;;;;;5021392;28;20046;-78
2021/12/04 05:53:54;;;;;;;50.83;13.77;;;5.30;99.90;;;;;;5022546;28;20084;-77
2021/12/04 05:56:21;;;;;;;67.10;15.05;;;5.30;99.90;;;;;;5020461;28;20046;-76
2021/12/04 05:58:48;;;;;;;51.40;15.50;;;5.30;99.90;;;;;;5020478;28;20053;-76
2021/12/04 06:01:16;;;;;;;64.78;15.68;;;5.30;99.90;;;;;;5020342;28;20062;-78
2021/12/04 06:03:41;;;;;;;69.10;16.17;;;5.20;99.90;;;;;;5021001;28;20401;-78
2021/12/04 06:06:07;;;;;;;;;;;5.20;99.90;;;;;;5021845;28;20100;-78
2021/12/04 06:08:38;;;;;;;61.42;15.98;;;5.10;99.90;;;;;;5023552;28;19928;-78
2021/12/04 06:11:04;;;;;;;65.85;16.60;;;5.00;99.90;;;;;;5019862;28;20077;-78
2021/12/04 06:13:30;;;;;;;;;;;5.00;99.90;;;;;;5023050;28;20486;-78
2021/12/04 06:15:56;;;;;;;58.13;17.25;;;4.90;99.90;;;;;;5026148;28;19932;-78
2021/12/04 06:18:22;;;;;;;;;;;4.90;99.90;;;;;;5023366;28;20048;-78
2021/12/04 06:23:35;;;;;;;53.88;15.95;;;5.00;99.90;;;;;;5021841;28;20042;-79
2021/12/04 06:26:01;;;;;;;;;;;5.00;99.90;;;;;;5025948;28;20512;-79
2021/12/04 06:28:27;;;;;;;67.88;17.13;;;5.00;99.90;;;;;;5022397;28;19921;-79
2021/12/04 06:30:54;;;;;;;;;;;4.80;99.90;;;;;;5018671;28;20029;-79
2021/12/04 06:33:21;;;;;;;75.70;18.10;;;4.90;99.90;;;;;;5025453;28;19925;-79
2021/12/04 06:35:47;;;;;;;72.70;17.20;;;4.90;99.90;;;;;;5023781;28;20121;-79
2021/12/04 06:38:16;;;;;;;85.07;19.20;;;4.90;99.90;;;;;;5025349;28;20378;-79
2021/12/04 06:40:41;;;;;;;77.10;18.85;;;4.90;99.90;;;;;;5023622;28;20053;-79
2021/12/04 06:43:07;;;;;;;;;;;4.90;99.90;;;;;;5024609;28;20060;-79
2021/12/04 06:45:36;;;;;;;88.75;19.17;;;5.00;99.90;;;;;;5022632;28;20019;-78
2021/12/04 06:48:12;;;;;;;79.43;18.92;;;5.00;99.90;;;;;;5024617;28;20375;-79
2021/12/04 06:53:25;;;;;;;54.42;14.85;;;4.90;99.90;;;;;;5025094;28;20400;-78
2021/12/04 06:55:53;;;;;;;80.82;17.42;;;4.90;99.90;;;;;;5018812;28;20046;-79
2021/12/04 06:58:21;;;;;;;76.93;18.10;;;4.90;99.90;;;;;;5017092;28;20038;-79
2021/12/04 07:00:48;;;;;;;80.35;17.70;;;4.90;99.90;;;;;;5025493;28;20052;-79
2021/12/04 07:03:14;;;;;;;61.40;16.75;;;4.90;99.90;;;;;;5021671;28;20042;-78
2021/12/04 07:05:39;;;;;;;;;;;4.90;99.90;;;;;;5024209;28;20475;-78
2021/12/04 07:08:05;;;;;;;78.88;16.98;;;4.90;99.90;;;;;;5023367;28;20384;-78
2021/12/04 07:10:32;;;;;;;;;;;4.90;99.90;;;;;;5023580;28;20038;-78
2021/12/04 07:12:57;;;;;;;50.83;15.77;;;5.00;99.90;;;;;;5023569;28;20436;-78
2021/12/04 07:15:26;;;;;;;;;;;5.00;99.90;;;;;;5023088;28;20137;-78
2021/12/04 07:17:52;;;;;;;67.93;16.70;;;4.90;99.90;;;;;;5021325;28;19917;-78
2021/12/04 07:20:17;;;;;;;;;;;4.90;99.90;;;;;;5021502;28;20041;-78
2021/12/04 07:22:43;;;;;;;42.63;14.80;;;5.10;99.90;;;;;;5026002;28;20353;-78
2021/12/04 07:25:09;;;;;;;;;;;5.10;99.90;;;;;;5022104;28;20136;-77
2021/12/04 07:27:34;;;;;;;53.90;13.65;;;5.10;99.90;;;;;;5023034;28;19976;-77
2021/12/04 07:30:00;;;;;;;;;;;5.00;99.90;;;;;;5024952;28;20056;-78
2021/12/04 07:32:26;;;;;;;65.68;16.40;;;5.00;99.90;;;;;;5023344;28;19947;-78
2021/12/04 07:34:53;;;;;;;;;;;4.90;99.90;;;;;;5021944;28;20050;-78
2021/12/04 07:37:19;;;;;;;56.85;15.00;;;4.90;99.90;;;;;;5023892;28;19921;-79
2021/12/04 07:39:47;;;;;;;61.75;16.05;;;4.90;99.90;;;;;;5010410;28;20049;-77
2021/12/04 07:42:12;;;;;;;;;;;4.90;99.90;;;;;;5006499;28;20443;-78
2021/12/04 07:44:38;;;;;;;55.00;15.50;;;4.90;99.90;;;;;;5016051;28;19928;-78
2021/12/04 07:47:07;;;;;;;60.28;14.55;;;4.90;99.90;;;;;;5024725;28;20084;-76
2021/12/04 07:49:32;;;;;;;62.75;15.73;;;4.90;99.90;;;;;;5022688;28;20041;-77
2021/12/04 07:51:58;;;;;;;;;;;5.00;99.90;;;;;;5022588;28;20050;-79
2021/12/04 07:54:26;;;;;;;53.53;14.65;;;4.90;99.90;;;;;;5021188;28;19967;-78
2021/12/04 07:56:51;;;;;;;59.47;15.13;;;4.90;99.90;;;;;;5022358;28;20095;-79
2021/12/04 07:59:17;;;;;;;;;;;4.90;99.90;;;;;;5021495;28;20042;-84
2021/12/04 08:01:42;;;;;;;54.55;16.65;;;4.90;99.90;;;;;;5016197;23;19966;-90
2021/12/04 08:04:08;;;;;;;;;;;4.90;99.90;;;;;;4985434;28;20038;-83
2021/12/04 08:06:35;;;;;;;51.28;13.27;;;4.90;99.90;;;;;;4990990;28;19921;-83
2021/12/04 08:09:04;;;;;;;48.38;13.68;;;5.00;99.90;;;;;;4984391;28;20046;-76
2021/12/04 08:11:30;;;;;;;57.13;16.17;;;5.00;99.90;;;;;;5004396;28;20046;-77
2021/12/04 08:13:56;;;;;;;;;;;4.90;99.90;;;;;;4986077;28;20129;-78
2021/12/04 08:16:24;;;;;;;51.88;14.45;;;4.90;99.90;;;;;;5004493;28;19921;-78
2021/12/04 08:18:52;;;;;;;51.90;14.88;;;4.90;99.90;;;;;;4985730;28;20112;-78
2021/12/04 08:21:19;;;;;;;56.67;15.63;;;5.10;99.90;;;;;;4984701;28;20057;-77
2021/12/04 08:23:44;;;;;;;52.17;14.00;;;5.10;99.90;;;;;;5002915;28;20069;-78
2021/12/04 08:26:10;;;;;;;;;;;5.00;99.90;;;;;;4984386;28;20080;-77
2021/12/04 08:28:36;;;;;;;47.80;13.32;;;5.00;99.90;;;;;;4987467;28;19928;-77
2021/12/04 08:31:01;;;;;;;;;;;5.00;99.90;;;;;;4983850;28;20501;-84
2021/12/04 08:33:27;;;;;;;48.53;15.43;;;5.00;99.90;;;;;;5006539;28;19980;-76
2021/12/04 08:35:53;;;;;;;;;;;5.00;99.90;;;;;;5001369;28;20533;-81
2021/12/04 08:38:18;;;;;;;46.67;11.95;;;5.00;99.90;;;;;;5015946;28;19929;-81
2021/12/04 08:40:44;;;;;;;;;;;5.10;99.90;;;;;;5004513;28;20406;-79
2021/12/04 08:43:13;;;;;;;45.20;12.43;;;5.10;99.90;;;;;;5002556;28;20382;-81
2021/12/04 08:45:40;;;;;;;48.42;12.60;;;5.00;99.90;;;;;;5003435;28;20096;-82
2021/12/04 08:48:07;;;;;;;51.90;14.48;;;5.00;99.90;;;;;;5002873;28;20095;-82
2021/12/04 08:50:35;;;;;;;56.33;14.27;;;5.00;99.90;;;;;;5002825;28;20045;-80
2021/12/04 08:53:05;;;;;;;42.78;13.65;;;5.00;99.90;;;;;;5006655;28;20095;-80
2021/12/04 08:55:35;;;;;;;59.85;15.02;;;5.00;99.90;;;;;;5009735;23;20049;-79
2021/12/04 08:58:01;;;;;;;55.72;16.33;;;5.00;99.90;;;;;;5019301;28;20077;-79
2021/12/04 09:00:36;;;;;;;45.60;14.95;;;5.00;99.90;;;;;;5026345;28;20405;-80
2021/12/04 09:03:03;;;;;;;33.70;13.05;;;5.10;99.90;;;;;;5017194;28;20049;-82
2021/12/04 09:05:29;;;;;;;42.65;13.10;;;5.10;99.90;;;;;;5017159;28;20436;-77
2021/12/04 09:07:55;;;;;;;41.03;12.80;;;5.10;99.90;;;;;;5026086;28;20041;-81
2021/12/04 09:10:21;;;;;;;;;;;5.10;99.90;;;;;;5026477;28;20090;-74
2021/12/04 09:12:48;;;;;;;30.10;11.80;;;5.10;99.90;;;;;;5023304;28;19921;-79
2021/12/04 09:15:19;;;;;;;33.17;12.32;;;5.00;99.90;;;;;;5024378;28;20049;-78
2021/12/04 09:17:44;;;;;;;40.05;12.65;;;5.10;99.90;;;;;;5026901;28;20043;-78
2021/12/04 09:20:12;;;;;;;;;;;5.00;99.90;;;;;;5014875;28;20124;-74
2021/12/04 09:22:38;;;;;;;;;;;5.00;99.90;;;;;;5021953;28;20369;-75
2021/12/04 09:25:09;;;;;;;30.65;11.38;;;5.10;99.90;;;;;;5031740;28;20011;-76
2021/12/04 09:30:25;;;;;;;29.17;12.35;;;5.10;99.90;;;;;;5016377;28;20045;-75
2021/12/04 10:00:23;;;;;;;;;;;5.20;99.90;;;;;;5013315;28;20044;-80
2021/12/04 10:03:11;;;;;;;26.73;9.57;;;5.20;99.90;;;;;;5024368;28;19925;-81
2021/12/04 10:11:51;;;;;;;27.90;10.20;;;5.20;99.90;;;;;;5020036;28;20053;-82
2021/12/04 10:24:56;;;;;;;29.58;10.35;;;5.20;99.90;;;;;;5023074;28;20068;-80
2021/12/04 10:33:12;;;;;;;27.80;10.40;;;5.20;99.90;;;;;;5023583;28;20490;-78
2021/12/04 10:35:38;;;;;;;25.05;10.90;;;5.30;99.90;;;;;;5022130;28;20053;-77
2021/12/04 10:38:07;;;;;;;181.18;85.20;;;5.30;99.90;;;;;;5022143;28;20514;-81
2021/12/04 10:40:42;;;;;;;686.75;412.35;;;5.20;99.90;;;;;;5020920;28;20052;-81
2021/12/04 10:43:13;;;;;;;49.65;30.80;;;5.20;99.90;;;;;;5021463;28;20033;-76
2021/12/04 10:45:46;;;;;;;36.15;17.30;;;5.20;99.90;;;;;;5021402;28;20068;-80
2021/12/04 10:48:18;;;;;;;33.25;15.70;;;5.30;99.90;;;;;;5016078;28;20124;-79
2021/12/04 10:50:50;;;;;;;100.85;58.40;;;5.30;99.90;;;;;;5021492;28;20040;-79
2021/12/04 10:53:23;;;;;;;182.25;83.60;;;5.30;99.90;;;;;;5018048;28;20124;-79
2021/12/04 11:07:15;;;;;;;29.58;13.32;;;5.40;99.90;;;;;;5020354;28;20045;-81
2021/12/04 11:38:16;;;;;;;27.23;11.00;;;5.30;99.90;;;;;;5251133;22;20054;-85
2021/12/04 11:43:41;;;;;;;28.00;10.98;;;5.20;99.90;;;;;;5004017;28;20046;-90
2021/12/04 11:46:19;;;;;;;27.35;9.68;;;5.20;99.90;;;;;;5026476;28;20061;-82
2021/12/04 11:48:46;;;;;;;31.00;12.20;;;5.30;99.90;;;;;;5028603;28;20053;-84
2021/12/04 11:51:23;;;;;;;33.22;12.73;;;5.20;99.90;;;;;;5027114;28;20093;-83
2021/12/04 11:53:53;;;;;;;34.45;12.57;;;5.20;99.90;;;;;;5044654;28;20045;-80
2021/12/04 11:56:28;;;;;;;33.33;14.55;;;5.10;99.90;;;;;;5025498;28;20053;-81
2021/12/04 11:58:54;;;;;;;32.00;14.82;;;5.20;99.90;;;;;;5028273;28;20497;-81
2021/12/04 12:01:30;;;;;;;33.75;14.15;;;5.10;99.90;;;;;;5028693;28;20041;-80
2021/12/04 12:04:00;;;;;;;42.03;21.42;;;6.20;99.90;;;;;;5025114;28;20048;-80
2021/12/04 12:06:39;;;;;;;31.15;16.08;;;5.20;99.90;;;;;;5028779;28;20101;-82
2021/12/04 12:09:15;;;;;;;32.05;12.13;;;5.30;99.90;;;;;;5027068;28;21316;-82
2021/12/04 12:11:56;;;;;;;27.57;11.33;;;5.20;99.90;;;;;;5027659;28;20053;-81
2021/12/04 12:14:39;;;;;;;26.38;11.60;;;5.20;99.90;;;;;;5027538;28;20055;-79
2021/12/04 12:17:07;;;;;;;30.13;10.90;;;5.20;99.90;;;;;;5027139;28;20061;-80
2021/12/04 12:19:43;;;;;;;21.98;10.23;;;5.30;99.90;;;;;;5022319;28;20118;-75
2021/12/04 12:36:09;;;;;;;30.10;14.13;;;5.40;99.90;;;;;;5023429;28;20053;-76
2021/12/04 12:38:53;;;;;;;29.13;12.80;;;5.50;99.90;;;;;;5025184;28;20103;-85
2021/12/04 12:41:48;;;;;;;30.58;14.48;;;5.50;99.90;;;;;;5026150;28;20064;-86
2021/12/04 12:44:28;;;;;;;29.77;13.43;;;5.50;99.90;;;;;;5025067;28;20127;-79
2021/12/04 12:46:59;;;;;;;27.17;11.38;;;5.50;99.90;;;;;;5018236;28;20079;-79
2021/12/04 12:49:37;;;;;;;35.33;17.08;;;5.60;99.90;;;;;;5037597;28;20363;-79
2021/12/04 12:52:25;;;;;;;33.40;16.58;;;5.50;99.90;;;;;;5040281;28;20045;-80
2021/12/04 12:55:12;;;;;;;28.50;12.90;;;5.40;99.90;;;;;;5037464;28;20045;-81
2021/12/04 12:57:45;;;;;;;25.58;11.82;;;5.50;99.90;;;;;;5023457;28;20049;-81
2021/12/04 13:14:17;;;;;;;24.42;11.20;;;5.40;99.90;;;;;;5023221;28;20440;-81
2021/12/04 13:16:47;;;;;;;27.10;12.32;;;5.40;99.90;;;;;;5024986;28;20053;-78
2021/12/04 13:19:18;;;;;;;23.90;10.85;;;5.40;99.90;;;;;;5022117;28;20045;-77
2021/12/04 13:21:51;;;;;;;21.92;10.68;;;5.30;99.90;;;;;;5038847;28;20457;-79
2021/12/04 13:24:18;;;;;;;22.83;10.70;;;5.40;99.90;;;;;;5018304;28;20080;-78
2021/12/04 13:26:49;;;;;;;23.55;11.27;;;6.40;99.90;;;;;;5017857;28;20081;-75
2021/12/04 13:29:19;;;;;;;24.15;11.15;;;5.50;99.90;;;;;;5036783;28;20051;-71
2021/12/04 13:31:44;;;;;;;19.40;9.15;;;5.50;99.90;;;;;;5037089;28;20167;-74
2021/12/04 13:34:14;;;;;;;;;;;5.60;99.90;;;;;;5022573;28;20455;-77
2021/12/04 13:36:44;;;;;;;20.73;10.35;;;5.60;99.90;;;;;;5021730;28;20153;-75
2021/12/04 13:39:14;;;;;;;19.33;9.65;;;5.60;99.90;;;;;;5019275;28;20096;-77
2021/12/04 13:41:42;;;;;;;23.67;10.52;;;5.60;99.90;;;;;;5022055;28;20080;-81
2021/12/04 13:44:10;;;;;;;21.52;9.18;;;5.60;99.90;;;;;;5023580;28;20048;-83
2021/12/04 13:46:43;;;;;;;20.02;9.30;;;5.60;99.90;;;;;;5018208;28;20055;-84
2021/12/04 14:04:41;;;;;;;21.80;8.98;;;5.70;99.90;;;;;;5703697;22;20045;-80
2021/12/04 14:07:07;;;;;;;;;;;5.70;99.90;;;;;;5349765;23;20054;-83
2021/12/04 14:09:57;;;;;;;19.80;8.10;;;5.70;99.90;;;;;;4994606;28;20766;-81
2021/12/04 14:12:50;;;;;;;20.75;9.32;;;5.60;99.90;;;;;;4995531;28;20505;-82
2021/12/04 14:15:19;;;;;;;24.90;9.63;;;5.50;99.90;;;;;;5001880;28;20115;-84
2021/12/04 14:17:47;;;;;;;21.70;10.23;;;5.50;99.90;;;;;;4995297;28;20084;-83
2021/12/04 14:20:18;;;;;;;21.67;8.85;;;5.90;99.90;;;;;;5002180;28;20044;-83
2021/12/04 14:22:46;;;;;;;21.65;9.45;;;5.70;99.90;;;;;;5002300;28;20135;-91
2021/12/04 14:25:11;;;;;;;21.63;10.25;;;5.70;99.90;;;;;;5006213;28;20124;-83
2021/12/04 14:27:38;;;;;;;;;;;5.70;99.90;;;;;;5016184;28;20173;-79
2021/12/04 14:30:09;;;;;;;24.95;10.18;;;5.70;99.90;;;;;;5002983;28;19921;-81
2021/12/04 14:32:45;;;;;;;29.40;10.13;;;5.60;99.90;;;;;;5007476;28;20054;-88
2021/12/04 14:35:16;;;;;;;23.77;9.95;;;5.50;99.90;;;;;;5006449;28;20045;-83
2021/12/04 14:40:08;;;;;;;;;;;5.70;99.90;;;;;;5037565;22;20081;-84
2021/12/04 14:42:58;;;;;;;27.63;11.13;;;5.50;99.90;;;;;;5017541;28;19922;-80
2021/12/04 14:45:35;;;;;;;27.10;10.90;;;5.70;99.90;;;;;;5026971;28;20041;-85
2021/12/04 14:48:30;;;;;;;30.40;11.00;;;5.30;99.90;;;;;;5030315;28;20489;-84
2021/12/04 14:51:04;;;;;;;30.00;12.35;;;5.50;99.90;;;;;;5016525;28;20128;-94
2021/12/04 14:57:55;;;;;;;30.73;12.68;;;6.30;99.90;;;;;;4964709;28;20093;-84
2021/12/04 15:00:35;;;;;;;25.45;9.95;;;5.90;99.90;;;;;;4969309;28;20043;-88
2021/12/04 15:03:41;;;;;;;26.25;10.05;;;5.60;99.90;;;;;;4948997;28;20061;-81
2021/12/04 15:06:32;;;;;;;25.25;11.65;;;7.10;99.90;;;;;;4963651;28;20114;-75
2021/12/04 15:09:14;;;;;;;24.80;9.70;;;5.40;99.90;;;;;;4967034;28;20063;-78
2021/12/04 15:11:43;;;;;;;27.17;10.27;;;5.30;99.90;;;;;;4963819;28;20047;-82
2021/12/04 15:14:21;;;;;;;26.45;11.13;;;5.30;99.90;;;;;;4961152;28;20454;-81
2021/12/04 15:16:59;;;;;;;26.65;10.48;;;5.40;99.90;;;;;;4983415;28;20057;-80
2021/12/04 15:19:38;;;;;;;26.35;10.80;;;6.10;99.90;;;;;;4984284;28;20495;-78
2021/12/04 15:22:14;;;;;;;27.90;11.38;;;5.60;99.90;;;;;;4970612;28;20133;-87
2021/12/04 15:25:11;;;;;;;26.65;11.07;;;5.40;99.90;;;;;;4952766;28;20106;-81
2021/12/04 15:55:37;;;;;;;31.43;13.93;;;5.40;99.90;;;;;;5045449;28;20060;-82
2021/12/04 15:58:16;;;;;;;29.65;12.45;;;5.40;99.90;;;;;;5030431;28;20075;-82
2021/12/04 16:00:46;;;;;;;35.53;14.13;;;4.50;99.90;;;;;;5028614;28;20081;-89
2021/12/04 16:03:16;;;;;;;32.38;12.50;;;5.40;99.90;;;;;;5029688;28;20044;-81
2021/12/04 16:05:54;;;;;;;34.60;13.48;;;5.50;99.90;;;;;;5032688;28;20553;-85
2021/12/04 16:08:26;;;;;;;30.45;12.48;;;5.40;99.90;;;;;;5026273;28;20040;-87
2021/12/04 16:10:53;;;;;;;32.72;12.90;;;5.40;99.90;;;;;;5030284;28;20049;-82
2021/12/04 16:21:12;;;;;;;31.30;11.82;;;6.60;99.90;;;;;;5052252;23;20084;-89
2021/12/04 16:23:59;;;;;;;33.85;14.32;;;4.40;99.90;;;;;;5019109;22;20076;-83
2021/12/04 16:26:30;;;;;;;34.42;12.43;;;5.40;99.90;;;;;;5005534;28;20698;-79
2021/12/04 16:29:09;;;;;;;32.03;13.10;;;5.50;99.90;;;;;;5007507;28;20056;-87
2021/12/04 16:37:34;;;;;;;32.35;12.63;;;5.30;99.90;;;;;;5023670;28;20041;-81
2021/12/04 16:40:04;;;;;;;33.45;13.20;;;5.30;99.90;;;;;;5006137;28;20050;-82
2021/12/04 16:42:29;;;;;;;35.55;13.00;;;5.30;99.90;;;;;;5002869;28;20054;-85
2021/12/04 16:44:55;;;;;;;;;;;5.30;99.90;;;;;;5006915;28;20537;-84
2021/12/04 16:47:21;;;;;;;31.95;12.80;;;5.30;99.90;;;;;;4995916;28;20276;-84
2021/12/04 16:49:48;;;;;;;34.35;13.32;;;5.30;99.90;;;;;;5004800;28;20054;-92
2021/12/04 17:00:14;;;;;;;;;;;5.30;99.90;;;;;;5007380;28;20087;-94
2021/12/04 17:02:40;;;;;;;30.42;13.10;;;5.30;99.90;;;;;;5008384;28;19921;-95
2021/12/04 17:05:07;;;;;;;;;;;5.30;99.90;;;;;;5022597;28;20043;-90
2021/12/04 17:07:33;;;;;;;26.92;12.77;;;5.20;99.90;;;;;;5021079;28;19968;-93
2021/12/04 17:09:58;;;;;;;;;;;5.20;99.90;;;;;;5029354;28;20100;-85
2021/12/04 17:12:27;;;;;;;28.08;12.60;;;5.20;99.90;;;;;;5008734;28;19921;-90
2021/12/04 17:14:53;;;;;;;24.05;10.05;;;5.20;99.90;;;;;;5004937;28;20107;-88
2021/12/04 17:17:25;;;;;;;;;;;5.20;99.90;;;;;;5005354;28;20042;-80
2021/12/04 17:19:55;;;;;;;19.75;9.20;;;5.20;99.90;;;;;;5023545;28;19921;-76
2021/12/04 17:22:21;;;;;;;21.85;11.80;;;6.70;99.90;;;;;;5023820;28;20048;-79
2021/12/04 17:24:47;;;;;;;21.20;10.45;;;5.20;99.90;;;;;;5025513;28;20072;-80
2021/12/04 17:27:12;;;;;;;;;;;5.20;99.90;;;;;;5041111;28;20029;-80
2021/12/04 17:29:40;;;;;;;14.43;6.78;;;5.20;99.90;;;;;;5025891;28;20008;-83